Time;durP1;ratioP1;P1;durP2;ratioP2;P2;SDS_P1;SDS_P2;PMS_P1;PMS_P2;Temp;Humidity;BMP_temperature;BMP_pressure;BME280_temperature;BME280_humidity;BME280_pressure;Samples;Min_cycle;Max_cycle;Signal;HPM_P1;HPM_P2
2022/06/04 00:00:52;;;;;;;13.65;12.13;;;11.30;99.90;;;;;;5087858;28;20064;-75
2022/06/04 00:03:18;;;;;;;15.57;12.13;;;11.40;99.90;;;;;;5079346;28;20142;-76
2022/06/04 00:05:47;;;;;;;13.80;12.27;;;11.30;99.90;;;;;;5074289;27;20043;-76
2022/06/04 00:08:16;;;;;;;14.23;11.02;;;11.30;99.90;;;;;;5109520;27;20046;-75
2022/06/04 00:16:17;;;;;;;15.48;12.10;;;11.30;99.90;;;;;;5139730;27;20055;-76
2022/06/04 00:18:44;;;;;;;14.75;11.55;;;11.20;99.90;;;;;;5106714;27;20107;-74
2022/06/04 00:21:12;;;;;;;13.35;12.00;;;11.30;99.90;;;;;;5076077;27;20047;-76
2022/06/04 00:23:39;;;;;;;13.48;11.95;;;11.20;99.90;;;;;;5091734;27;20086;-75
2022/06/04 00:26:07;;;;;;;13.40;11.80;;;11.20;99.90;;;;;;5084717;27;20475;-76
2022/06/04 00:28:34;;;;;;;17.00;12.13;;;11.20;99.90;;;;;;5092950;27;20031;-76
2022/06/04 00:30:59;;;;;;;13.50;11.75;;;11.10;99.90;;;;;;5107371;27;20042;-76
2022/06/04 00:33:26;;;;;;;16.08;12.90;;;11.20;99.90;;;;;;5089055;27;20110;-74
2022/06/04 00:35:54;;;;;;;14.52;11.93;;;11.10;99.90;;;;;;5076879;27;20039;-77
2022/06/04 00:38:23;;;;;;;14.45;11.55;;;11.10;99.90;;;;;;5075344;27;20504;-75
2022/06/04 00:41:27;;;;;;;17.15;12.43;;;11.10;99.90;;;;;;5091729;27;20043;-75
2022/06/04 00:44:10;;;;;;;14.05;12.13;;;11.10;99.90;;;;;;5029134;28;20041;-77
2022/06/04 00:46:41;;;;;;;13.88;11.90;;;11.10;99.90;;;;;;5007866;28;20045;-76
2022/06/04 00:49:25;;;;;;;16.33;12.32;;;11.00;99.90;;;;;;5061636;27;20043;-77
2022/06/04 00:51:53;;;;;;;18.33;12.82;;;11.00;99.90;;;;;;5092588;27;20039;-76
2022/06/04 00:54:19;;;;;;;14.88;12.65;;;11.00;99.90;;;;;;5089362;27;20122;-74
2022/06/04 00:57:12;;;;;;;14.40;12.15;;;11.00;99.90;;;;;;5106467;27;20046;-76
2022/06/04 01:00:17;;;;;;;14.63;12.07;;;11.00;99.90;;;;;;5106298;27;20085;-76
2022/06/04 01:03:26;;;;;;;16.42;11.98;;;11.00;99.90;;;;;;5105159;27;20027;-75
2022/06/04 01:06:23;;;;;;;14.77;12.02;;;11.00;99.90;;;;;;5106419;27;20054;-77
2022/06/04 01:09:06;;;;;;;17.65;12.95;;;11.00;99.90;;;;;;5088648;27;20039;-75
2022/06/04 01:12:09;;;;;;;18.52;12.75;;;11.00;99.90;;;;;;5142482;27;20043;-77
2022/06/04 01:14:38;;;;;;;16.58;12.00;;;10.90;99.90;;;;;;5104318;27;20058;-73
2022/06/04 01:17:19;;;;;;;18.23;12.60;;;11.00;99.90;;;;;;5101427;27;20054;-74
2022/06/04 01:19:54;;;;;;;21.48;12.13;;;10.90;99.90;;;;;;5101953;27;20043;-74
2022/06/04 01:22:32;;;;;;;15.80;11.60;;;10.90;99.90;;;;;;5106188;27;20035;-72
2022/06/04 01:25:19;;;;;;;18.38;11.82;;;10.90;99.90;;;;;;5104585;27;20123;-75
2022/06/04 01:27:56;;;;;;;14.85;11.73;;;10.90;99.90;;;;;;5105934;27;20070;-75
2022/06/04 01:30:28;;;;;;;15.10;12.00;;;10.90;99.90;;;;;;5134723;27;20066;-75
2022/06/04 01:32:59;;;;;;;18.27;11.95;;;10.90;99.90;;;;;;5088431;27;20089;-76
2022/06/04 01:35:36;;;;;;;17.20;12.63;;;10.80;99.90;;;;;;5133153;27;20047;-73
2022/06/04 01:38:31;;;;;;;18.00;12.05;;;10.80;99.90;;;;;;5085228;27;20056;-76
2022/06/04 01:41:07;;;;;;;15.38;12.82;;;10.90;99.90;;;;;;5118378;27;20055;-74
2022/06/04 01:43:59;;;;;;;16.48;12.95;;;10.80;99.90;;;;;;5103215;27;20108;-74
2022/06/04 01:46:36;;;;;;;21.70;13.52;;;10.80;99.90;;;;;;5105819;27;20039;-75
2022/06/04 01:49:12;;;;;;;17.45;13.43;;;10.70;99.90;;;;;;5081779;27;20047;-74
2022/06/04 01:51:38;;;;;;;16.67;14.38;;;10.80;99.90;;;;;;5098481;27;20510;-74
2022/06/04 01:54:15;;;;;;;16.23;13.80;;;10.80;99.90;;;;;;5081143;27;20103;-74
2022/06/04 01:56:49;;;;;;;21.45;14.40;;;10.70;99.90;;;;;;5102991;27;20031;-73
2022/06/04 01:59:31;;;;;;;20.23;14.52;;;10.80;99.90;;;;;;5090406;27;20455;-74
2022/06/04 02:02:01;;;;;;;18.15;15.13;;;10.70;99.90;;;;;;5103924;27;20047;-76
2022/06/04 02:04:32;;;;;;;21.00;14.75;;;10.70;99.90;;;;;;5085523;27;20048;-75
2022/06/04 02:07:31;;;;;;;20.15;15.52;;;10.70;99.90;;;;;;5085328;27;20047;-75
2022/06/04 02:10:33;;;;;;;19.20;15.18;;;10.60;99.90;;;;;;5103029;27;20043;-75
2022/06/04 02:13:08;;;;;;;23.02;16.17;;;10.70;99.90;;;;;;5100185;27;20679;-75
2022/06/04 02:15:59;;;;;;;22.80;16.17;;;10.60;99.90;;;;;;5089167;27;20038;-74
2022/06/04 02:18:25;;;;;;;20.60;15.52;;;10.60;99.90;;;;;;5134579;27;20098;-74
2022/06/04 02:20:51;;;;;;;18.13;15.00;;;10.60;99.90;;;;;;5087878;27;20070;-76
2022/06/04 02:23:17;;;;;;;19.75;16.33;;;10.60;99.90;;;;;;5142027;27;20104;-76
2022/06/04 02:25:47;;;;;;;22.55;15.82;;;10.60;99.90;;;;;;5102265;27;20035;-74
2022/06/04 02:28:13;;;;;;;20.50;16.13;;;10.60;99.90;;;;;;5071511;27;20043;-75
2022/06/04 02:30:54;;;;;;;21.35;16.00;;;10.60;99.90;;;;;;5071100;27;20351;-75
2022/06/04 02:33:52;;;;;;;;;;;10.50;99.90;;;;;;5139068;27;20047;-74
2022/06/04 02:36:30;;;;;;;18.90;15.48;;;10.50;99.90;;;;;;5022751;27;19930;-73
2022/06/04 02:39:11;;;;;;;17.80;14.73;;;10.50;99.90;;;;;;5074981;27;20114;-74
2022/06/04 02:41:52;;;;;;;21.38;17.05;;;10.50;99.90;;;;;;5095450;27;20047;-74
2022/06/04 02:44:29;;;;;;;20.02;16.63;;;10.50;99.90;;;;;;5101620;27;20585;-73
2022/06/04 02:47:29;;;;;;;27.35;16.63;;;10.50;99.90;;;;;;5118190;27;20497;-74
2022/06/04 02:50:00;;;;;;;;;;;10.40;99.90;;;;;;5106577;27;20039;-72
2022/06/04 02:52:26;;;;;;;;;;;10.30;99.90;;;;;;5087014;27;21488;-75
2022/06/04 02:54:57;;;;;;;20.98;16.83;;;10.30;99.90;;;;;;5103282;27;19954;-74
2022/06/04 02:57:26;;;;;;;22.40;17.73;;;10.30;99.90;;;;;;5082412;27;20058;-74
2022/06/04 02:59:52;;;;;;;20.73;17.35;;;10.30;99.90;;;;;;5102874;27;20044;-75
2022/06/04 03:02:21;;;;;;;20.80;17.23;;;10.30;99.90;;;;;;5093537;27;20526;-73
2022/06/04 03:04:53;;;;;;;24.45;17.30;;;10.30;99.90;;;;;;5081465;27;20043;-73
2022/06/04 03:07:21;;;;;;;20.80;17.52;;;10.30;99.90;;;;;;5083904;27;20062;-74
2022/06/04 03:09:50;;;;;;;22.10;16.77;;;10.30;99.90;;;;;;5103377;27;20946;-73
2022/06/04 03:12:16;;;;;;;20.70;17.00;;;10.30;99.90;;;;;;5100021;27;20183;-74
2022/06/04 03:14:42;;;;;;;24.95;17.50;;;10.20;99.90;;;;;;5078646;27;20129;-76
2022/06/04 03:17:10;;;;;;;20.77;18.08;;;10.20;99.90;;;;;;5077064;28;20134;-73
2022/06/04 03:19:37;;;;;;;25.42;17.98;;;10.20;99.90;;;;;;5081970;28;20048;-74
2022/06/04 03:22:03;;;;;;;22.50;18.50;;;10.20;99.90;;;;;;5069114;28;20529;-74
2022/06/04 03:24:29;;;;;;;22.30;17.98;;;10.10;99.90;;;;;;5065791;28;20130;-74
2022/06/04 03:26:55;;;;;;;24.73;19.25;;;10.10;99.90;;;;;;5069324;28;20205;-75
2022/06/04 03:29:21;;;;;;;23.80;19.02;;;10.10;99.90;;;;;;5065676;28;20058;-75
2022/06/04 03:31:47;;;;;;;25.08;18.33;;;10.10;99.90;;;;;;5100172;28;20474;-74
2022/06/04 03:34:13;;;;;;;23.13;17.83;;;10.10;99.90;;;;;;5102582;28;20040;-73
2022/06/04 03:36:40;;;;;;;20.92;17.55;;;10.00;99.90;;;;;;5096637;28;20044;-75
2022/06/04 03:39:08;;;;;;;24.63;18.10;;;10.00;99.90;;;;;;5104015;28;20443;-74
2022/06/04 03:41:36;;;;;;;19.80;16.50;;;10.00;99.90;;;;;;5087365;28;20071;-73
2022/06/04 03:44:02;;;;;;;21.45;16.10;;;10.00;99.90;;;;;;5074557;28;21637;-73
2022/06/04 03:46:28;;;;;;;24.40;17.95;;;10.00;99.90;;;;;;5105549;28;20054;-74
2022/06/04 03:48:58;;;;;;;22.42;15.95;;;10.00;99.90;;;;;;5061978;28;20035;-74
2022/06/04 03:51:27;;;;;;;19.50;15.98;;;10.10;99.90;;;;;;5102136;28;20048;-74
2022/06/04 03:53:52;;;;;;;19.85;15.27;;;10.10;99.90;;;;;;5102257;28;20082;-75
2022/06/04 03:56:19;;;;;;;22.15;15.85;;;10.10;99.90;;;;;;5104924;28;20098;-74
2022/06/04 03:58:44;;;;;;;20.83;16.75;;;10.10;99.90;;;;;;5089317;28;20058;-72
2022/06/04 04:01:19;;;;;;;21.00;15.93;;;10.10;99.90;;;;;;5101762;28;20040;-75
2022/06/04 04:03:45;;;;;;;19.60;14.40;;;10.10;99.90;;;;;;5091774;28;20402;-75
2022/06/04 04:06:20;;;;;;;19.05;14.93;;;10.10;99.90;;;;;;5088271;28;20052;-75
2022/06/04 04:08:46;;;;;;;20.30;14.07;;;10.10;99.90;;;;;;5083351;28;20617;-74
2022/06/04 04:11:15;;;;;;;18.42;13.68;;;10.20;99.90;;;;;;5089020;28;20093;-73
2022/06/04 04:13:41;;;;;;;21.30;13.60;;;10.20;99.90;;;;;;5083437;28;20043;-74
2022/06/04 04:16:09;;;;;;;16.50;13.23;;;10.20;99.90;;;;;;5099735;27;20438;-74
2022/06/04 04:18:36;;;;;;;19.52;12.57;;;10.30;99.90;;;;;;5103052;28;20134;-73
2022/06/04 04:21:10;;;;;;;18.20;13.07;;;10.20;99.90;;;;;;5129548;27;20040;-75
2022/06/04 04:23:36;;;;;;;16.40;12.43;;;10.30;99.90;;;;;;5096184;27;20539;-74
2022/06/04 04:26:03;;;;;;;14.02;11.70;;;10.30;99.90;;;;;;5092236;27;20039;-73
2022/06/04 04:28:29;;;;;;;16.27;12.18;;;10.40;99.90;;;;;;5081154;28;20055;-73
2022/06/04 04:30:55;;;;;;;15.38;11.63;;;10.40;99.90;;;;;;5078699;27;20035;-73
2022/06/04 04:33:21;;;;;;;15.75;11.25;;;10.40;99.90;;;;;;5073511;27;20048;-74
2022/06/04 04:35:47;;;;;;;14.18;11.88;;;10.40;99.90;;;;;;5119631;27;20035;-75
2022/06/04 04:38:15;;;;;;;16.40;10.82;;;10.50;99.90;;;;;;5087423;27;20189;-76
2022/06/04 04:40:42;;;;;;;15.25;10.50;;;10.50;99.90;;;;;;5077635;27;20039;-75
2022/06/04 04:43:08;;;;;;;14.60;10.50;;;10.60;99.90;;;;;;5081968;27;20163;-75
2022/06/04 04:45:34;;;;;;;13.15;9.88;;;10.60;99.90;;;;;;5099669;27;21159;-74
2022/06/04 04:48:00;;;;;;;13.25;9.80;;;10.70;99.90;;;;;;5103518;28;20531;-74
2022/06/04 04:50:30;;;;;;;13.68;9.25;;;10.70;99.90;;;;;;5089926;28;20075;-74
2022/06/04 04:52:57;;;;;;;14.60;9.80;;;10.80;99.90;;;;;;5097485;27;20058;-74
2022/06/04 04:55:24;;;;;;;10.57;8.88;;;10.80;99.90;;;;;;5093782;27;20047;-73
2022/06/04 04:57:50;;;;;;;12.27;9.90;;;10.80;99.90;;;;;;5129797;27;20050;-74
2022/06/04 05:00:19;;;;;;;13.13;9.98;;;10.90;99.90;;;;;;5111846;27;20146;-75
2022/06/04 05:02:45;;;;;;;11.65;8.85;;;11.00;99.90;;;;;;5083057;27;20058;-74
2022/06/04 05:05:12;;;;;;;12.90;9.13;;;11.00;99.90;;;;;;5063589;28;20043;-75
2022/06/04 05:07:40;;;;;;;11.27;8.55;;;11.10;99.90;;;;;;5094457;27;20138;-73
2022/06/04 05:10:10;;;;;;;13.15;8.98;;;11.10;99.90;;;;;;5104936;27;20122;-74
2022/06/04 05:12:36;;;;;;;;;;;11.10;99.90;;;;;;5090919;27;20099;-74
2022/06/04 05:15:03;;;;;;;11.52;8.65;;;11.20;99.90;;;;;;5105791;27;19927;-75
2022/06/04 05:17:28;;;;;;;11.43;8.45;;;11.20;99.90;;;;;;5092954;28;20513;-74
2022/06/04 05:19:54;;;;;;;12.77;8.50;;;11.30;99.90;;;;;;5084437;28;20093;-75
2022/06/04 05:22:20;;;;;;;12.18;8.27;;;11.40;99.90;;;;;;5065751;28;20051;-72
2022/06/04 05:24:46;;;;;;;12.38;7.72;;;11.40;99.90;;;;;;5083795;28;20124;-73
2022/06/04 05:27:12;;;;;;;9.57;7.82;;;11.50;99.90;;;;;;5061236;28;20506;-74
2022/06/04 05:29:38;;;;;;;10.40;7.53;;;11.50;99.90;;;;;;5072784;28;20055;-74
2022/06/04 05:32:11;;;;;;;11.40;8.50;;;11.60;99.90;;;;;;5081969;28;21090;-73
2022/06/04 05:34:38;;;;;;;9.70;7.55;;;11.60;99.90;;;;;;5105498;28;20091;-72
2022/06/04 05:37:04;;;;;;;8.68;7.65;;;11.70;99.90;;;;;;5100647;28;20592;-74
2022/06/04 05:39:31;;;;;;;10.93;7.90;;;11.80;99.90;;;;;;5085529;28;20051;-74
2022/06/04 05:42:01;;;;;;;12.55;7.53;;;11.80;99.90;;;;;;5087013;28;20054;-73
2022/06/04 05:44:27;;;;;;;11.05;7.40;;;11.80;99.90;;;;;;5087940;28;20050;-73
2022/06/04 05:46:53;;;;;;;8.45;6.95;;;12.00;99.90;;;;;;5074476;28;20064;-72
2022/06/04 05:49:19;;;;;;;11.07;6.65;;;12.00;99.90;;;;;;5098735;28;20424;-72
2022/06/04 05:51:46;;;;;;;10.55;7.07;;;12.10;99.90;;;;;;5062927;28;20039;-73
2022/06/04 05:54:16;;;;;;;10.95;7.43;;;12.10;99.90;;;;;;5102226;28;20043;-72
2022/06/04 05:56:44;;;;;;;8.63;6.73;;;12.20;99.90;;;;;;5069745;28;20447;-73
2022/06/04 05:59:14;;;;;;;9.93;7.15;;;12.30;99.90;;;;;;5100114;27;20301;-73
2022/06/04 06:01:41;;;;;;;10.47;7.03;;;12.30;99.90;;;;;;5083934;28;20040;-74
2022/06/04 06:04:11;;;;;;;8.98;6.80;;;12.40;99.90;;;;;;5103501;28;20525;-74
2022/06/04 06:06:38;;;;;;;;;;;12.40;99.90;;;;;;5081834;28;20142;-74
2022/06/04 06:09:07;;;;;;;9.30;7.03;;;12.40;99.90;;;;;;5136793;27;19969;-74
2022/06/04 06:11:33;;;;;;;8.90;6.88;;;12.50;99.90;;;;;;5085181;28;20108;-73
2022/06/04 06:13:59;;;;;;;10.27;6.88;;;12.60;99.90;;;;;;5087755;28;20039;-75
2022/06/04 06:16:28;;;;;;;8.80;6.88;;;12.60;99.90;;;;;;5100767;27;20513;-75
2022/06/04 06:18:55;;;;;;;9.50;6.65;;;12.70;99.90;;;;;;5103559;27;20055;-75
2022/06/04 06:21:23;;;;;;;7.88;6.70;;;12.70;99.90;;;;;;5129619;27;20051;-74
2022/06/04 06:23:50;;;;;;;8.27;6.57;;;12.70;99.90;;;;;;5071729;27;20071;-75
2022/06/04 06:26:22;;;;;;;10.80;7.32;;;12.70;99.90;;;;;;5103527;27;20044;-75
2022/06/04 06:28:49;;;;;;;10.07;7.25;;;12.80;99.90;;;;;;5107995;27;20411;-74
2022/06/04 06:31:21;;;;;;;7.95;6.68;;;12.90;99.90;;;;;;5073839;27;20050;-74
2022/06/04 06:33:47;;;;;;;8.80;6.40;;;12.90;99.90;;;;;;5087881;27;20035;-73
2022/06/04 06:36:14;;;;;;;9.10;6.25;;;12.90;99.90;;;;;;5105241;27;20446;-74
2022/06/04 06:38:41;;;;;;;8.57;6.50;;;13.00;99.90;;;;;;5089937;27;20092;-74
2022/06/04 06:41:08;;;;;;;8.98;6.47;;;13.10;99.90;;;;;;5101110;27;20078;-72
2022/06/04 06:43:39;;;;;;;8.88;6.82;;;13.30;99.90;;;;;;5082952;27;20108;-75
2022/06/04 06:46:11;;;;;;;10.23;5.80;;;13.30;99.90;;;;;;5083314;27;20040;-75
2022/06/04 06:48:40;;;;;;;7.47;5.97;;;13.40;99.90;;;;;;5100879;27;20122;-74
2022/06/04 06:51:28;;;;;;;7.82;6.55;;;13.50;99.90;;;;;;5094537;28;20039;-74
2022/06/04 06:53:57;;;;;;;9.35;7.15;;;13.50;99.90;;;;;;5132950;27;20035;-74
2022/06/04 06:56:27;;;;;;;8.25;6.18;;;13.60;99.90;;;;;;5102437;27;20039;-75
2022/06/04 06:58:54;;;;;;;8.55;6.70;;;13.70;99.90;;;;;;5086595;27;20043;-75
2022/06/04 07:01:21;;;;;;;9.75;6.30;;;13.70;99.90;;;;;;5099587;27;20065;-73
2022/06/04 07:03:50;;;;;;;10.13;6.35;;;13.90;99.90;;;;;;5105259;27;20084;-75
2022/06/04 07:06:36;;;;;;;9.43;6.35;;;13.90;99.90;;;;;;5101203;27;20035;-76
2022/06/04 07:09:11;;;;;;;8.45;6.65;;;13.90;99.90;;;;;;5137229;27;20047;-74
2022/06/04 07:11:37;;;;;;;7.35;5.97;;;14.00;99.90;;;;;;5097752;28;20058;-74
2022/06/04 07:14:03;;;;;;;7.63;6.75;;;14.20;99.90;;;;;;5085060;27;20039;-73
2022/06/04 07:16:29;;;;;;;9.38;6.00;;;14.20;99.90;;;;;;5098609;28;20039;-75
2022/06/04 07:18:58;;;;;;;8.05;6.40;;;14.30;99.90;;;;;;5084117;28;20143;-76
2022/06/04 07:21:24;;;;;;;7.50;5.65;;;14.30;99.90;;;;;;5080265;28;20047;-75
2022/06/04 07:23:50;;;;;;;9.20;5.65;;;14.50;99.90;;;;;;5082904;28;20047;-74
2022/06/04 07:26:16;;;;;;;9.02;5.82;;;14.70;99.90;;;;;;5083009;28;20414;-73
2022/06/04 07:28:42;;;;;;;7.65;5.28;;;14.80;99.90;;;;;;5082039;28;20039;-73
2022/06/04 07:31:10;;;;;;;8.07;6.03;;;14.80;99.90;;;;;;5098851;27;20749;-76
2022/06/04 07:33:36;;;;;;;10.50;6.28;;;14.70;99.90;;;;;;5098886;28;20055;-76
2022/06/04 07:36:02;;;;;;;9.10;5.85;;;14.70;99.90;;;;;;5096754;27;20054;-74
2022/06/04 07:38:28;;;;;;;8.82;5.85;;;14.60;99.90;;;;;;5081484;28;20043;-74
2022/06/04 07:40:54;;;;;;;7.22;5.88;;;14.60;99.90;;;;;;5083816;27;20070;-73
2022/06/04 07:43:20;;;;;;;8.02;5.57;;;14.60;99.90;;;;;;5098526;28;20498;-74
2022/06/04 07:45:46;;;;;;;6.93;5.40;;;14.60;99.90;;;;;;5100747;28;20067;-73
2022/06/04 07:48:12;;;;;;;7.65;5.60;;;14.60;99.90;;;;;;5086233;28;20043;-74
2022/06/04 07:50:39;;;;;;;10.27;5.63;;;14.70;99.90;;;;;;5097946;28;20047;-74
2022/06/04 07:53:05;;;;;;;7.78;5.63;;;14.80;99.90;;;;;;5086199;28;20075;-75
2022/06/04 07:55:32;;;;;;;7.07;5.55;;;15.00;99.90;;;;;;5101538;27;20039;-75
2022/06/04 07:57:58;;;;;;;7.90;5.80;;;15.10;99.90;;;;;;5118696;27;20067;-74
2022/06/04 08:00:24;;;;;;;8.05;5.78;;;15.30;99.90;;;;;;5077389;28;20075;-72
2022/06/04 08:02:51;;;;;;;8.65;5.28;;;15.40;99.90;;;;;;5066365;28;20146;-74
2022/06/04 08:05:17;;;;;;;7.45;5.10;;;15.60;99.90;;;;;;5053580;28;20496;-75
2022/06/04 08:07:44;;;;;;;8.50;5.85;;;15.70;99.90;;;;;;5082753;28;20050;-75
2022/06/04 08:10:11;;;;;;;7.95;5.78;;;15.90;99.90;;;;;;5079829;28;20047;-73
2022/06/04 08:12:56;;;;;;;7.50;5.30;;;16.00;99.90;;;;;;5079903;28;20528;-74
2022/06/04 08:15:22;;;;;;;7.22;5.60;;;16.10;99.90;;;;;;5082663;28;20103;-73
2022/06/04 08:17:48;;;;;;;8.50;5.80;;;16.10;99.90;;;;;;5081549;27;20057;-74
2022/06/04 08:20:16;;;;;;;7.05;5.45;;;16.10;99.90;;;;;;5116756;27;20047;-76
2022/06/04 08:22:42;;;;;;;8.70;5.85;;;16.10;99.90;;;;;;5076836;28;20051;-74
2022/06/04 08:25:08;;;;;;;8.55;5.90;;;16.20;99.90;;;;;;5090171;28;20419;-73
2022/06/04 08:27:34;;;;;;;8.07;5.80;;;16.20;99.90;;;;;;5080338;27;20035;-74
2022/06/04 08:30:00;;;;;;;6.45;5.60;;;16.30;99.90;;;;;;5067107;27;20039;-74
2022/06/04 08:32:26;;;;;;;6.80;5.50;;;16.30;99.90;;;;;;5118374;27;20172;-73
2022/06/04 08:34:52;;;;;;;8.63;6.28;;;16.30;99.90;;;;;;5080910;27;20489;-74
2022/06/04 08:37:18;;;;;;;8.00;5.22;;;16.40;99.90;;;;;;5098207;27;20121;-74
2022/06/04 08:39:44;;;;;;;7.18;5.65;;;16.50;99.90;;;;;;5081056;28;20071;-74
2022/06/04 08:42:10;;;;;;;8.45;5.93;;;16.70;99.90;;;;;;5091183;27;20459;-73
2022/06/04 08:44:48;;;;;;;8.30;6.15;;;16.60;99.90;;;;;;5087441;27;20107;-73
2022/06/04 08:47:26;;;;;;;7.15;5.22;;;16.60;99.90;;;;;;5101050;27;20160;-72
2022/06/04 08:50:22;;;;;;;7.45;5.50;;;16.50;99.90;;;;;;5104884;27;20525;-74
2022/06/04 08:52:59;;;;;;;8.70;6.20;;;16.50;99.90;;;;;;5105316;27;20058;-74
2022/06/04 08:58:59;;;;;;;10.18;6.00;;;16.60;99.90;;;;;;5105025;27;20051;-73
2022/06/04 09:01:53;;;;;;;8.75;6.15;;;16.60;99.90;;;;;;5104819;27;20047;-74
2022/06/04 09:04:56;;;;;;;8.15;6.07;;;16.60;99.90;;;;;;5069161;27;20142;-75
2022/06/04 09:07:38;;;;;;;6.32;5.43;;;16.60;99.90;;;;;;5118720;27;20390;-74
2022/06/04 09:10:21;;;;;;;7.88;6.53;;;16.60;99.90;;;;;;5113900;27;20519;-73
2022/06/04 09:12:51;;;;;;;9.05;6.18;;;16.70;99.90;;;;;;5118100;27;20055;-74
2022/06/04 09:15:39;;;;;;;9.45;5.78;;;16.60;99.90;;;;;;5097850;27;20046;-74
2022/06/04 09:18:22;;;;;;;7.97;5.93;;;16.60;99.90;;;;;;5101666;27;20043;-75
2022/06/04 09:20:56;;;;;;;7.82;5.57;;;16.60;99.90;;;;;;5086937;27;20104;-72
2022/06/04 09:23:34;;;;;;;7.10;6.35;;;16.70;99.90;;;;;;5119791;27;20389;-75
2022/06/04 09:26:15;;;;;;;8.63;6.13;;;16.80;99.90;;;;;;5123089;27;20040;-73
2022/06/04 09:29:07;;;;;;;8.25;6.72;;;16.80;99.90;;;;;;5129228;27;20055;-73
2022/06/04 09:31:33;;;;;;;8.68;6.88;;;16.80;99.90;;;;;;5104834;27;20493;-73
2022/06/04 09:34:07;;;;;;;8.95;6.70;;;16.90;99.90;;;;;;5091585;27;20046;-73
2022/06/04 09:36:37;;;;;;;8.55;5.85;;;16.90;99.90;;;;;;5104661;27;20569;-75
2022/06/04 09:39:28;;;;;;;7.40;6.47;;;16.90;99.90;;;;;;5107765;27;20039;-74
2022/06/04 09:42:04;;;;;;;7.15;5.72;;;17.00;99.90;;;;;;5104542;27;20130;-72
2022/06/04 09:44:35;;;;;;;7.25;5.45;;;17.10;99.90;;;;;;5088618;27;20051;-72
2022/06/04 09:47:16;;;;;;;8.90;5.47;;;17.10;99.90;;;;;;5133667;27;20126;-74
2022/06/04 09:49:54;;;;;;;8.20;5.70;;;17.20;99.90;;;;;;5120550;27;20031;-71
2022/06/04 09:52:29;;;;;;;7.25;4.90;;;17.30;99.90;;;;;;5116879;27;20049;-74
2022/06/04 09:55:06;;;;;;;6.35;4.90;;;17.40;99.90;;;;;;5120269;27;20122;-73
2022/06/04 09:57:35;;;;;;;8.23;5.53;;;17.40;99.90;;;;;;5088157;27;20035;-74
2022/06/04 10:00:23;;;;;;;7.43;5.03;;;17.40;99.90;;;;;;5116499;27;20028;-73
2022/06/04 10:02:57;;;;;;;6.93;4.72;;;17.50;99.90;;;;;;5135958;27;20528;-72
2022/06/04 10:05:28;;;;;;;7.53;5.22;;;17.70;99.90;;;;;;5099413;27;20051;-73
2022/06/04 10:07:56;;;;;;;5.97;4.85;;;17.80;99.90;;;;;;5086841;27;20092;-73
2022/06/04 10:10:42;;;;;;;6.40;5.40;;;17.80;99.90;;;;;;5085235;27;20043;-74
2022/06/04 10:16:28;;;;;;;5.75;3.90;;;17.90;99.90;;;;;;5117040;27;20208;-74
2022/06/04 10:19:01;;;;;;;7.32;4.53;;;18.00;99.90;;;;;;5139906;27;20066;-72
2022/06/04 10:21:34;;;;;;;6.07;4.15;;;18.20;99.90;;;;;;5084982;27;20436;-73
2022/06/04 10:24:17;;;;;;;6.13;4.43;;;18.40;99.90;;;;;;5088146;27;20042;-72
2022/06/04 10:27:28;;;;;;;6.85;3.72;;;18.50;99.90;;;;;;5088969;27;20051;-72
2022/06/04 10:29:57;;;;;;;8.38;4.30;;;18.70;99.90;;;;;;5107256;27;20035;-72
2022/06/04 10:33:05;;;;;;;7.60;4.47;;;18.90;99.90;;;;;;5086654;27;20107;-73
2022/06/04 10:35:46;;;;;;;6.68;3.78;;;19.00;99.90;;;;;;5132746;27;20043;-72
2022/06/04 10:38:46;;;;;;;6.53;4.45;;;19.10;99.90;;;;;;5087828;27;20043;-72
2022/06/04 10:41:31;;;;;;;;;;;19.20;99.90;;;;;;5080618;27;20284;-72
2022/06/04 10:44:22;;;;;;;5.85;3.83;;;19.30;99.90;;;;;;5114909;27;20376;-71
2022/06/04 10:46:50;;;;;;;6.07;3.72;;;19.40;99.90;;;;;;5100532;27;20071;-72
2022/06/04 10:49:47;;;;;;;5.80;3.08;;;19.50;99.90;;;;;;5102668;27;20039;-73
2022/06/04 10:52:16;;;;;;;5.95;3.80;;;19.60;99.90;;;;;;5090076;27;20390;-72
2022/06/04 10:54:50;;;;;;;5.45;3.80;;;19.60;99.90;;;;;;5096314;27;20523;-73
2022/06/04 10:57:38;;;;;;;6.10;3.45;;;19.50;99.90;;;;;;5083709;27;20486;-73
2022/06/04 11:00:23;;;;;;;6.10;2.72;;;19.50;99.90;;;;;;5097181;27;20047;-73
2022/06/04 11:03:20;;;;;;;5.50;3.15;;;19.80;99.90;;;;;;5097784;28;20114;-73
2022/06/04 11:05:58;;;;;;;4.88;3.15;;;20.20;99.90;;;;;;5096901;28;20555;-74
2022/06/04 11:08:30;;;;;;;5.93;3.83;;;20.10;96.10;;;;;;5077036;27;20050;-73
2022/06/04 11:11:04;;;;;;;5.47;3.50;;;20.10;98.50;;;;;;5107596;27;20050;-75
2022/06/04 11:13:41;;;;;;;5.68;3.60;;;19.90;99.90;;;;;;5098444;28;20071;-73
2022/06/04 11:16:17;;;;;;;;;;;20.00;98.00;;;;;;5091236;27;20039;-74
2022/06/04 11:18:57;;;;;;;5.28;3.30;;;19.90;98.30;;;;;;5099815;27;19930;-73
2022/06/04 11:21:57;;;;;;;5.88;3.45;;;19.90;98.60;;;;;;5116961;27;20047;-73
2022/06/04 11:24:54;;;;;;;6.43;3.38;;;19.90;99.90;;;;;;5088741;27;20060;-72
2022/06/04 11:27:39;;;;;;;5.35;3.22;;;20.10;96.90;;;;;;5058703;28;20468;-74
2022/06/04 11:30:21;;;;;;;5.65;3.42;;;20.20;96.50;;;;;;5086278;28;20200;-73
2022/06/04 11:33:13;;;;;;;7.95;3.85;;;20.20;97.30;;;;;;5083830;28;20049;-74
2022/06/04 11:35:46;;;;;;;6.18;3.10;;;20.20;96.30;;;;;;5084764;27;20045;-74
2022/06/04 11:38:18;;;;;;;4.55;3.33;;;20.20;97.30;;;;;;5137335;27;20043;-74
2022/06/04 11:41:26;;;;;;;4.60;3.17;;;20.20;99.00;;;;;;5103032;28;20039;-75
2022/06/04 11:44:14;;;;;;;6.18;3.20;;;20.30;97.70;;;;;;5076065;28;20565;-74
2022/06/04 11:46:50;;;;;;;5.00;3.35;;;20.50;94.60;;;;;;5096880;28;20490;-73
2022/06/04 11:49:25;;;;;;;7.35;3.53;;;20.60;95.70;;;;;;5103172;27;20338;-76
2022/06/04 11:52:06;;;;;;;4.20;2.80;;;20.60;95.80;;;;;;5100497;28;20070;-74
2022/06/04 11:54:53;;;;;;;4.97;3.20;;;20.50;93.40;;;;;;5102369;28;20086;-73
2022/06/04 11:57:54;;;;;;;5.13;3.20;;;20.30;95.50;;;;;;5086827;27;20136;-75
2022/06/04 12:00:41;;;;;;;4.32;3.10;;;20.20;93.80;;;;;;5101234;27;20047;-74
2022/06/04 12:03:37;;;;;;;6.40;3.03;;;20.20;94.20;;;;;;5126748;27;20433;-74
2022/06/04 12:06:28;;;;;;;5.30;3.00;;;20.20;93.80;;;;;;5089173;27;20051;-75
2022/06/04 12:09:08;;;;;;;4.32;3.00;;;20.20;91.90;;;;;;5088701;27;20111;-75
2022/06/04 12:11:48;;;;;;;5.03;3.35;;;20.20;95.40;;;;;;5088871;27;20494;-75
2022/06/04 12:14:32;;;;;;;6.25;3.55;;;20.30;96.90;;;;;;5100979;27;20066;-74
2022/06/04 12:17:13;;;;;;;5.55;3.50;;;20.40;95.70;;;;;;5106744;27;20055;-75
2022/06/04 12:25:40;;;;;;;4.63;3.10;;;20.60;96.00;;;;;;5100943;27;20054;-72
2022/06/04 12:28:29;;;;;;;5.72;3.33;;;20.60;93.20;;;;;;5099167;27;20097;-75
2022/06/04 12:30:56;;;;;;;6.88;3.28;;;20.50;91.20;;;;;;5124169;27;20467;-74
2022/06/04 12:33:35;;;;;;;4.35;2.90;;;20.50;93.30;;;;;;5106216;27;20078;-75
2022/06/04 12:36:05;;;;;;;4.72;3.20;;;20.60;95.50;;;;;;5091129;27;20050;-74
2022/06/04 12:38:37;;;;;;;5.03;3.33;;;20.90;94.10;;;;;;5088116;27;20050;-73
2022/06/04 12:41:14;;;;;;;7.20;3.92;;;20.90;95.00;;;;;;5089165;27;20083;-73
2022/06/04 12:43:59;;;;;;;6.20;3.47;;;20.90;94.70;;;;;;5134636;27;20107;-73
2022/06/04 12:46:27;;;;;;;7.10;2.97;;;21.00;98.10;;;;;;5106717;27;20043;-73
2022/06/04 12:48:55;;;;;;;6.18;3.65;;;21.10;95.20;;;;;;5103320;27;20149;-73
2022/06/04 12:51:46;;;;;;;6.93;3.42;;;21.10;96.00;;;;;;5104244;27;20100;-74
2022/06/04 12:54:25;;;;;;;4.80;3.10;;;21.10;94.30;;;;;;5087225;27;20054;-72
2022/06/04 12:56:57;;;;;;;9.35;3.90;;;21.00;93.40;;;;;;5104482;27;20041;-73
2022/06/04 12:59:39;;;;;;;5.90;3.65;;;20.90;93.80;;;;;;5098331;27;20057;-73
2022/06/04 13:02:28;;;;;;;6.68;3.20;;;20.90;93.90;;;;;;5082487;27;20039;-73
2022/06/04 13:05:27;;;;;;;4.95;3.50;;;20.90;93.10;;;;;;5089240;27;20031;-73
2022/06/04 13:08:08;;;;;;;5.00;3.05;;;20.70;92.80;;;;;;5104285;27;20528;-72
2022/06/04 13:10:45;;;;;;;5.28;2.88;;;20.60;93.90;;;;;;5101468;27;20047;-74
2022/06/04 13:13:45;;;;;;;4.97;3.85;;;20.60;95.20;;;;;;5081091;27;20058;-73
2022/06/04 13:16:29;;;;;;;7.13;4.15;;;20.60;94.70;;;;;;5099952;27;20039;-74
2022/06/04 13:19:18;;;;;;;6.65;3.70;;;20.50;93.80;;;;;;5082611;27;20044;-74
2022/06/04 13:21:48;;;;;;;5.53;3.60;;;20.50;95.90;;;;;;5138042;27;20078;-74
2022/06/04 13:24:22;;;;;;;5.55;3.15;;;20.50;96.10;;;;;;5115079;27;20112;-73
2022/06/04 13:27:05;;;;;;;5.60;3.20;;;20.50;93.80;;;;;;5088543;27;20111;-72
2022/06/04 13:29:35;;;;;;;6.75;3.20;;;20.50;94.40;;;;;;5103264;27;20051;-73
2022/06/04 13:32:10;;;;;;;6.07;3.10;;;20.50;95.00;;;;;;5087143;27;20127;-73
2022/06/04 13:34:36;;;;;;;5.75;2.92;;;20.40;92.30;;;;;;5102340;27;20075;-74